Lakebay, Washington
Current Conditions -  °F | °C
As of 7:53 AM on Wednesday 26 Nov 2014 (Local Time) from KTIW Reporting Station
Overcast Overcast  
Wind Chill: 55°   Ceiling: 5000
Heat Index: 55°   Visibility: 10mi
Dew Point: 52°   Wind: 12mph
Humidity: 89%   Direction: 180°S
Pressure: 30.15"   Gusts: NA
Location:  47.26°N, 122.76°W
Report Text: KTIW 261553Z 18010KT 10SM SCT032 OVC050 13/11 A3015 RMK AO2 SLP211 T01280111
Loading
Personal Weather Stations






























Interactive Weather Map New forecast layout! Learn more

10-Day Weather Forecast

Advertisements
Track Severe Weather on mobile